createdAt,value
2023-05-19T00:02:27.418Z,10.80
2023-05-19T00:04:56.259Z,10.70
2023-05-19T00:07:29.455Z,10.60
2023-05-19T00:09:56.763Z,10.50
2023-05-19T00:12:24.561Z,10.50
2023-05-19T00:14:52.050Z,10.50
2023-05-19T00:17:20.505Z,10.50
2023-05-19T00:19:47.443Z,10.40
2023-05-19T00:22:16.164Z,10.40
2023-05-19T00:24:43.123Z,10.40
2023-05-19T00:27:10.369Z,10.40
2023-05-19T00:29:37.237Z,10.40
2023-05-19T00:32:04.906Z,10.40
2023-05-19T00:34:31.838Z,10.40
2023-05-19T00:36:58.973Z,10.40
2023-05-19T00:39:27.126Z,10.40
2023-05-19T00:41:54.286Z,10.40
2023-05-19T00:44:21.135Z,10.40
2023-05-19T00:46:48.440Z,10.30
2023-05-19T00:49:15.319Z,10.30
2023-05-19T00:51:42.559Z,10.30
2023-05-19T00:54:09.792Z,10.20
2023-05-19T00:56:38.450Z,10.30
2023-05-19T00:59:05.421Z,10.30
2023-05-19T01:01:32.742Z,10.30
2023-05-19T01:04:01.095Z,10.20
2023-05-19T01:06:29.681Z,10.20
2023-05-19T01:08:57.392Z,10.20
2023-05-19T01:11:24.649Z,10.10
2023-05-19T01:13:52.863Z,10.10
2023-05-19T01:16:24.991Z,10.10
2023-05-19T01:21:56.880Z,10.00
2023-05-19T01:24:39.252Z,10.10
2023-05-19T01:27:34.928Z,10.10
2023-05-19T01:30:29.258Z,10.10
2023-05-19T01:33:00.052Z,10.10
2023-05-19T01:35:28.713Z,10.10
2023-05-19T01:37:57.493Z,10.00
2023-05-19T01:40:26.535Z,9.90
2023-05-19T01:42:57.398Z,9.90
2023-05-19T01:45:25.270Z,9.90
2023-05-19T01:47:56.127Z,9.90
2023-05-19T01:50:23.251Z,9.90
2023-05-19T01:52:50.891Z,9.80
2023-05-19T01:55:18.050Z,9.80
2023-05-19T01:57:55.732Z,9.70
2023-05-19T02:00:29.086Z,9.70
2023-05-19T02:03:09.535Z,9.70
2023-05-19T02:05:44.577Z,9.60
2023-05-19T02:08:16.869Z,9.60
2023-05-19T02:10:48.810Z,9.60
2023-05-19T02:13:18.888Z,9.60
2023-05-19T02:15:47.098Z,9.70
2023-05-19T02:18:18.256Z,9.70
2023-05-19T02:20:48.531Z,9.70
2023-05-19T02:23:15.742Z,9.60
2023-05-19T02:25:43.129Z,9.70
2023-05-19T02:28:10.308Z,9.70
2023-05-19T02:30:37.130Z,9.80
2023-05-19T02:33:06.685Z,9.80
2023-05-19T02:35:34.960Z,9.70
2023-05-19T02:38:01.834Z,9.70
2023-05-19T02:40:28.900Z,9.70
2023-05-19T02:42:55.936Z,9.70
2023-05-19T02:45:22.853Z,9.70
2023-05-19T02:47:50.023Z,9.80
2023-05-19T02:50:17.122Z,9.90
2023-05-19T02:52:45.763Z,9.80
2023-05-19T02:55:16.976Z,9.80
2023-05-19T02:57:44.240Z,9.80
2023-05-19T03:00:11.908Z,9.80
2023-05-19T03:02:40.005Z,9.80
2023-05-19T03:05:08.245Z,9.80
2023-05-19T03:07:35.120Z,9.80
2023-05-19T03:10:04.095Z,9.70
2023-05-19T03:12:31.915Z,9.80
2023-05-19T03:14:58.782Z,9.70
2023-05-19T03:17:26.246Z,9.70
2023-05-19T03:19:53.150Z,9.60
2023-05-19T03:22:21.370Z,9.60
2023-05-19T03:24:50.997Z,9.60
2023-05-19T03:27:19.154Z,9.80
2023-05-19T03:29:45.934Z,9.60
2023-05-19T03:32:13.062Z,9.60
2023-05-19T03:34:39.825Z,9.60
2023-05-19T03:37:06.960Z,9.50
2023-05-19T03:39:33.720Z,9.50
2023-05-19T03:42:00.901Z,9.60
2023-05-19T03:44:28.969Z,9.50
2023-05-19T03:46:55.831Z,9.50
2023-05-19T03:49:22.756Z,9.50
2023-05-19T03:51:49.715Z,9.50
2023-05-19T03:54:16.943Z,9.50
2023-05-19T03:56:43.937Z,9.60
2023-05-19T03:59:10.880Z,9.70
2023-05-19T04:01:39.303Z,9.70
2023-05-19T04:04:06.156Z,9.80
2023-05-19T04:06:34.208Z,9.80
2023-05-19T04:09:02.290Z,9.80
2023-05-19T04:11:29.070Z,9.90
2023-05-19T04:13:55.856Z,9.90
2023-05-19T04:16:23.058Z,10.00
2023-05-19T04:18:51.254Z,10.00
2023-05-19T04:21:18.395Z,10.00
2023-05-19T04:23:45.291Z,10.10
2023-05-19T04:26:12.568Z,10.10
2023-05-19T04:28:42.258Z,10.20
2023-05-19T04:31:11.108Z,10.20
2023-05-19T04:33:38.125Z,10.30
2023-05-19T04:36:09.039Z,10.30
2023-05-19T04:38:37.873Z,10.40
2023-05-19T04:41:04.974Z,10.40
2023-05-19T04:43:31.918Z,10.50
2023-05-19T04:45:59.223Z,10.40
2023-05-19T04:48:26.068Z,10.40
2023-05-19T04:50:53.503Z,10.50
2023-05-19T04:53:22.023Z,10.50
2023-05-19T04:55:50.497Z,10.50
2023-05-19T04:58:17.372Z,10.50
2023-05-19T05:00:44.229Z,10.50
2023-05-19T05:03:12.310Z,10.60
2023-05-19T05:05:39.536Z,10.60
2023-05-19T05:08:07.061Z,10.70
2023-05-19T05:10:35.589Z,10.60
2023-05-19T05:13:03.013Z,10.70
2023-05-19T05:15:30.496Z,10.70
2023-05-19T05:17:58.233Z,10.70
2023-05-19T05:20:26.458Z,10.80
2023-05-19T05:22:53.811Z,10.80
2023-05-19T05:25:21.800Z,10.80
2023-05-19T05:27:49.937Z,10.90
2023-05-19T05:30:17.030Z,10.90
2023-05-19T05:32:44.007Z,10.90
2023-05-19T05:35:11.375Z,11.00
2023-05-19T05:37:38.203Z,11.00
2023-05-19T05:40:07.337Z,11.00
2023-05-19T05:42:34.201Z,11.10
2023-05-19T05:45:02.954Z,11.30
2023-05-19T05:47:30.285Z,11.20
2023-05-19T05:49:58.100Z,11.20
2023-05-19T05:52:29.567Z,11.30
2023-05-19T05:54:57.266Z,11.30
2023-05-19T05:57:24.347Z,11.40
2023-05-19T05:59:51.613Z,11.50
2023-05-19T06:02:20.012Z,11.60
2023-05-19T06:04:47.130Z,11.60
2023-05-19T06:07:14.292Z,11.60
2023-05-19T06:09:41.477Z,11.60
2023-05-19T06:12:08.724Z,11.70
2023-05-19T06:14:35.594Z,11.70
2023-05-19T06:17:02.745Z,11.80
2023-05-19T06:19:30.976Z,11.80
2023-05-19T06:21:58.202Z,12.00
2023-05-19T06:24:25.080Z,12.00
2023-05-19T06:26:52.408Z,12.10
2023-05-19T06:29:19.215Z,12.20
2023-05-19T06:31:46.815Z,12.20
2023-05-19T06:34:17.515Z,12.40
2023-05-19T06:36:46.076Z,12.50
2023-05-19T06:39:13.003Z,12.60
2023-05-19T06:41:40.234Z,12.70
2023-05-19T06:44:08.959Z,12.80
2023-05-19T06:46:36.393Z,12.80
2023-05-19T06:49:03.262Z,12.90
2023-05-19T06:51:30.421Z,12.90
2023-05-19T06:53:58.545Z,12.90
2023-05-19T06:56:25.720Z,12.90
2023-05-19T06:58:52.544Z,13.00
2023-05-19T07:01:19.781Z,13.20
2023-05-19T07:03:46.822Z,13.30
2023-05-19T07:06:13.999Z,13.30
2023-05-19T07:08:40.876Z,13.50
2023-05-19T07:11:09.730Z,13.60
2023-05-19T07:13:36.561Z,13.60
2023-05-19T07:16:03.779Z,13.80
2023-05-19T07:18:33.635Z,13.90
2023-05-19T07:21:00.924Z,14.00
2023-05-19T07:23:27.777Z,14.10
2023-05-19T07:25:56.847Z,14.20
2023-05-19T07:28:25.389Z,14.30
2023-05-19T07:30:53.414Z,14.30
2023-05-19T07:33:20.430Z,14.30
2023-05-19T07:35:47.967Z,14.30
2023-05-19T07:38:14.817Z,14.30
2023-05-19T07:40:41.950Z,14.30
2023-05-19T07:43:08.758Z,14.50
2023-05-19T07:45:37.407Z,14.50
2023-05-19T07:48:04.452Z,14.60
2023-05-19T07:50:32.465Z,14.70
2023-05-19T07:52:59.416Z,14.80
2023-05-19T07:55:26.658Z,14.70
2023-05-19T07:57:53.550Z,14.80
2023-05-19T08:00:20.835Z,14.90
2023-05-19T08:02:49.181Z,14.90
2023-05-19T08:05:16.163Z,15.00
2023-05-19T08:07:43.064Z,15.00
2023-05-19T08:10:10.037Z,15.10
2023-05-19T08:12:36.890Z,15.10
2023-05-19T08:15:04.627Z,15.30
2023-05-19T08:17:31.510Z,15.40
2023-05-19T08:20:00.323Z,15.40
2023-05-19T08:22:27.521Z,15.50
2023-05-19T08:24:54.750Z,15.70
2023-05-19T08:27:21.643Z,15.80
2023-05-19T08:29:48.868Z,15.90
2023-05-19T08:32:15.813Z,16.00
2023-05-19T08:34:42.672Z,16.10
2023-05-19T08:37:11.883Z,16.10
2023-05-19T08:39:38.733Z,16.10
2023-05-19T08:42:08.295Z,16.20
2023-05-19T08:44:35.246Z,16.30
2023-05-19T08:47:12.941Z,16.30
2023-05-19T08:49:45.464Z,16.50
2023-05-19T08:52:25.323Z,16.70
2023-05-19T08:54:55.915Z,16.90
2023-05-19T08:57:25.203Z,17.10
2023-05-19T08:59:54.273Z,17.20
2023-05-19T09:02:22.665Z,17.10
2023-05-19T09:04:49.737Z,17.10
2023-05-19T09:07:19.972Z,17.10
2023-05-19T09:09:47.661Z,17.10
2023-05-19T09:12:15.019Z,17.10
2023-05-19T09:14:42.235Z,17.20
2023-05-19T09:17:09.860Z,17.00
2023-05-19T09:19:42.367Z,16.90
2023-05-19T09:22:09.236Z,16.90
2023-05-19T09:24:40.328Z,17.00
2023-05-19T09:27:07.761Z,17.10
2023-05-19T09:29:34.606Z,17.20
2023-05-19T09:32:06.460Z,17.30
2023-05-19T09:34:33.359Z,17.40
2023-05-19T09:37:00.337Z,17.50
2023-05-19T09:39:28.708Z,17.60
2023-05-19T09:41:59.038Z,17.60
2023-05-19T09:44:29.377Z,17.60
2023-05-19T09:46:57.861Z,17.60
2023-05-19T09:49:26.020Z,17.50
2023-05-19T09:51:54.995Z,17.40
2023-05-19T09:54:23.728Z,17.60
2023-05-19T09:57:00.020Z,17.80
2023-05-19T09:59:30.461Z,17.80
2023-05-19T10:02:00.539Z,17.90
2023-05-19T10:04:28.294Z,18.00
2023-05-19T10:06:59.390Z,17.90
2023-05-19T10:09:29.336Z,18.00
2023-05-19T10:11:59.393Z,18.00
2023-05-19T10:14:27.600Z,18.20
2023-05-19T10:16:56.385Z,18.30
2023-05-19T10:19:24.756Z,18.30
2023-05-19T10:21:52.814Z,18.20
2023-05-19T10:24:21.237Z,18.20
2023-05-19T10:26:51.876Z,18.30
2023-05-19T10:29:25.204Z,18.40
2023-05-19T10:31:54.573Z,18.50
2023-05-19T10:34:50.522Z,18.70
2023-05-19T10:37:27.312Z,18.70
2023-05-19T10:39:55.582Z,18.60
2023-05-19T10:42:36.728Z,18.50
2023-05-19T10:45:11.828Z,18.50
2023-05-19T10:47:41.222Z,18.40
2023-05-19T10:50:08.538Z,18.40
2023-05-19T10:52:38.057Z,18.50
2023-05-19T10:55:08.756Z,18.60
2023-05-19T10:57:35.965Z,18.70
2023-05-19T11:00:26.450Z,18.60
2023-05-19T11:02:56.572Z,18.60
2023-05-19T11:05:29.628Z,18.50
2023-05-19T11:08:02.563Z,18.50
2023-05-19T11:10:29.601Z,18.60
2023-05-19T11:12:58.327Z,18.70
2023-05-19T11:15:28.220Z,18.60
2023-05-19T11:17:55.776Z,18.70
2023-05-19T11:20:24.166Z,18.80
2023-05-19T11:23:04.966Z,18.90
2023-05-19T11:25:43.076Z,19.10
2023-05-19T11:28:12.570Z,19.40
2023-05-19T11:30:43.432Z,19.50
2023-05-19T11:33:11.102Z,19.30
2023-05-19T11:35:39.080Z,19.10
2023-05-19T11:38:07.503Z,19.50
2023-05-19T11:40:34.445Z,20.20
2023-05-19T11:43:02.315Z,20.50
2023-05-19T11:45:33.306Z,20.30
2023-05-19T11:48:03.585Z,20.30
2023-05-19T11:50:31.291Z,20.60
2023-05-19T11:53:00.767Z,20.80
2023-05-19T11:55:28.266Z,21.40
2023-05-19T11:58:04.949Z,22.30
2023-05-19T12:00:39.531Z,23.00
2023-05-19T12:03:09.295Z,23.90
2023-05-19T12:05:41.834Z,23.60
2023-05-19T12:08:10.694Z,22.80
2023-05-19T12:10:38.747Z,22.30
2023-05-19T12:13:08.329Z,21.90
2023-05-19T12:15:35.635Z,21.60
2023-05-19T12:18:03.697Z,21.30
2023-05-19T12:20:35.226Z,21.40
2023-05-19T12:23:03.370Z,22.10
2023-05-19T12:25:31.241Z,22.40
2023-05-19T12:27:59.643Z,22.40
2023-05-19T12:30:27.867Z,22.40
2023-05-19T12:32:57.211Z,21.80
2023-05-19T12:35:26.865Z,21.20
2023-05-19T12:37:55.634Z,20.80
2023-05-19T12:40:22.575Z,20.50
2023-05-19T12:42:52.297Z,20.30
2023-05-19T12:45:22.860Z,20.00
2023-05-19T12:47:50.754Z,20.00
2023-05-19T12:50:17.514Z,20.10
2023-05-19T12:52:46.603Z,20.20
2023-05-19T12:55:16.587Z,20.30
2023-05-19T12:57:45.010Z,20.40
2023-05-19T13:00:15.268Z,20.50
2023-05-19T13:02:56.535Z,20.50
2023-05-19T13:05:23.993Z,20.50
2023-05-19T13:07:55.849Z,20.40
2023-05-19T13:10:26.971Z,20.40
2023-05-19T13:12:55.840Z,20.30
2023-05-19T13:15:24.111Z,20.40
2023-05-19T13:17:51.939Z,20.40
2023-05-19T13:20:19.104Z,20.30
2023-05-19T13:22:47.103Z,20.30
2023-05-19T13:25:14.521Z,20.30
2023-05-19T13:27:43.348Z,20.20
2023-05-19T13:30:10.849Z,20.30
2023-05-19T13:32:38.417Z,20.30
2023-05-19T13:35:06.652Z,20.60
2023-05-19T13:37:33.950Z,21.80
2023-05-19T13:40:01.468Z,23.30
2023-05-19T13:42:28.673Z,24.90
2023-05-19T13:44:56.981Z,26.30
2023-05-19T13:47:24.180Z,27.70
2023-05-19T13:49:51.549Z,28.50
2023-05-19T13:52:19.001Z,27.60
2023-05-19T13:54:46.156Z,25.90
2023-05-19T13:57:13.012Z,24.10
2023-05-19T13:59:49.320Z,23.00
2023-05-19T14:02:30.427Z,22.10
2023-05-19T14:04:57.648Z,21.40
2023-05-19T14:07:25.970Z,20.90
2023-05-19T14:09:53.079Z,20.70
2023-05-19T14:12:23.324Z,20.50
2023-05-19T14:14:52.177Z,20.40
2023-05-19T14:17:19.209Z,20.30
2023-05-19T14:19:47.667Z,20.20
2023-05-19T14:22:15.057Z,20.30
2023-05-19T14:24:41.964Z,20.40
2023-05-19T14:27:08.974Z,20.50
2023-05-19T14:29:35.832Z,20.50
2023-05-19T14:32:04.138Z,20.50
2023-05-19T14:34:31.203Z,20.50
2023-05-19T14:36:59.863Z,20.50
2023-05-19T14:39:26.732Z,20.30
2023-05-19T14:41:54.590Z,20.20
2023-05-19T14:44:21.448Z,20.00
2023-05-19T14:46:48.504Z,20.00
2023-05-19T14:49:15.550Z,20.00
2023-05-19T14:51:42.488Z,20.10
2023-05-19T14:54:10.840Z,20.10
2023-05-19T14:56:38.060Z,20.10
2023-05-19T14:59:04.945Z,20.20
2023-05-19T15:01:32.264Z,20.30
2023-05-19T15:03:59.202Z,20.40
2023-05-19T15:06:26.251Z,20.80
2023-05-19T15:08:53.374Z,21.40
2023-05-19T15:11:22.434Z,21.60
2023-05-19T15:13:49.666Z,21.70
2023-05-19T15:16:18.291Z,21.50
2023-05-19T15:18:45.544Z,21.50
2023-05-19T15:21:12.548Z,21.60
2023-05-19T15:23:39.724Z,21.40
2023-05-19T15:26:07.490Z,21.30
2023-05-19T15:28:36.077Z,21.50
2023-05-19T15:31:03.005Z,22.00
2023-05-19T15:33:30.217Z,22.10
2023-05-19T15:35:57.395Z,22.00
2023-05-19T15:38:24.239Z,22.00
2023-05-19T15:40:51.349Z,21.90
2023-05-19T15:43:18.531Z,21.60
2023-05-19T15:45:46.759Z,21.30
2023-05-19T15:48:14.020Z,21.00
2023-05-19T15:50:41.011Z,20.80
2023-05-19T15:53:09.258Z,20.60
2023-05-19T15:55:36.092Z,20.50
2023-05-19T15:58:03.034Z,20.50
2023-05-19T16:00:29.957Z,20.60
2023-05-19T16:02:58.588Z,20.60
2023-05-19T16:05:25.707Z,20.50
2023-05-19T16:07:52.886Z,20.60
2023-05-19T16:10:19.768Z,20.60
2023-05-19T16:12:47.106Z,20.50
2023-05-19T16:15:14.254Z,20.50
2023-05-19T16:17:41.477Z,20.40
2023-05-19T16:20:11.250Z,20.30
2023-05-19T16:22:38.433Z,20.60
2023-05-19T16:25:06.978Z,21.10
2023-05-19T16:27:34.176Z,22.00
2023-05-19T16:30:02.453Z,22.70
2023-05-19T16:32:29.702Z,23.70
2023-05-19T16:34:56.531Z,24.20
2023-05-19T16:37:25.113Z,24.00
2023-05-19T16:39:51.954Z,24.30
2023-05-19T16:42:18.800Z,24.90
2023-05-19T16:44:45.663Z,24.70
2023-05-19T16:47:12.896Z,24.10
2023-05-19T16:49:40.796Z,24.20
2023-05-19T16:52:08.233Z,24.10
2023-05-19T16:54:36.601Z,24.10
2023-05-19T16:57:03.786Z,24.00
2023-05-19T16:59:30.635Z,23.30
2023-05-19T17:01:57.880Z,22.70
2023-05-19T17:04:24.726Z,22.00
2023-05-19T17:06:51.939Z,21.30
2023-05-19T17:09:25.053Z,20.90
2023-05-19T17:11:54.101Z,20.60
2023-05-19T17:14:21.922Z,20.40
2023-05-19T17:16:49.212Z,20.30
2023-05-19T17:19:16.855Z,20.30
2023-05-19T17:21:44.080Z,20.20
2023-05-19T17:24:10.978Z,20.10
2023-05-19T17:26:38.041Z,20.00
2023-05-19T17:29:06.178Z,19.90
2023-05-19T17:31:33.265Z,19.80
2023-05-19T17:34:00.124Z,19.70
2023-05-19T17:36:27.090Z,19.70
2023-05-19T17:38:53.969Z,19.50
2023-05-19T17:41:22.142Z,19.40
2023-05-19T17:43:49.009Z,19.30
2023-05-19T17:46:17.577Z,19.20
2023-05-19T17:48:44.661Z,19.10
2023-05-19T17:51:12.367Z,19.00
2023-05-19T17:53:39.722Z,18.90
2023-05-19T17:56:09.861Z,18.80
2023-05-19T17:58:37.173Z,18.70
2023-05-19T18:01:04.834Z,18.60
2023-05-19T18:03:33.870Z,18.50
2023-05-19T18:06:01.199Z,18.50
2023-05-19T18:08:28.918Z,18.40
2023-05-19T18:10:57.025Z,18.40
2023-05-19T18:13:24.073Z,18.30
2023-05-19T18:15:52.652Z,18.30
2023-05-19T18:18:19.632Z,18.20
2023-05-19T18:20:48.218Z,18.10
2023-05-19T18:23:15.236Z,18.10
2023-05-19T18:25:49.362Z,18.00
2023-05-19T18:28:16.254Z,17.90
2023-05-19T18:30:43.760Z,17.80
2023-05-19T18:33:12.627Z,17.70
2023-05-19T18:35:39.588Z,17.60
2023-05-19T18:38:08.017Z,17.50
2023-05-19T18:40:35.157Z,17.50
2023-05-19T18:43:02.382Z,17.40
2023-05-19T18:45:29.266Z,17.30
2023-05-19T18:47:56.541Z,17.20
2023-05-19T18:50:23.444Z,17.10
2023-05-19T18:52:50.349Z,17.00
2023-05-19T18:55:18.593Z,17.00
2023-05-19T18:57:46.317Z,16.90
2023-05-19T19:00:14.521Z,16.90
2023-05-19T19:02:41.537Z,16.70
2023-05-19T19:05:09.575Z,16.70
2023-05-19T19:07:39.901Z,16.60
2023-05-19T19:10:08.352Z,16.60
2023-05-19T19:12:36.604Z,16.50
2023-05-19T19:15:04.383Z,16.40
2023-05-19T19:17:31.448Z,16.30
2023-05-19T19:19:58.532Z,16.20
2023-05-19T19:22:25.737Z,16.20
2023-05-19T19:24:52.576Z,16.10
2023-05-19T19:27:21.191Z,16.00
2023-05-19T19:29:49.673Z,15.90
2023-05-19T19:32:16.753Z,15.90
2023-05-19T19:34:43.984Z,15.90
2023-05-19T19:37:11.087Z,15.80
2023-05-19T19:39:39.403Z,15.70
2023-05-19T19:42:06.475Z,15.60
2023-05-19T19:44:33.331Z,15.60
2023-05-19T19:47:01.580Z,15.60
2023-05-19T19:49:28.422Z,15.50
2023-05-19T19:51:55.904Z,15.50
2023-05-19T19:54:22.710Z,15.50
2023-05-19T19:56:49.935Z,15.50
2023-05-19T19:59:17.402Z,15.40
2023-05-19T20:01:44.378Z,15.50
2023-05-19T20:04:12.927Z,15.40
2023-05-19T20:06:39.967Z,15.30
2023-05-19T20:09:07.038Z,15.30
2023-05-19T20:11:33.946Z,15.20
2023-05-19T20:14:00.894Z,15.20
2023-05-19T20:16:28.228Z,15.10
2023-05-19T20:18:55.188Z,15.10
2023-05-19T20:21:23.435Z,15.10
2023-05-19T20:23:50.981Z,15.00
2023-05-19T20:26:18.219Z,15.00
2023-05-19T20:28:45.098Z,15.00
2023-05-19T20:31:12.323Z,15.00
2023-05-19T20:33:39.297Z,15.00
2023-05-19T20:36:07.275Z,14.90
2023-05-19T20:38:35.485Z,14.90
2023-05-19T20:41:02.482Z,14.80
2023-05-19T20:43:29.474Z,14.80
2023-05-19T20:45:57.229Z,14.80
2023-05-19T20:48:24.195Z,14.70
2023-05-19T20:50:51.928Z,14.70
2023-05-19T20:53:19.704Z,14.70
2023-05-19T20:55:48.493Z,14.70
2023-05-19T20:58:15.437Z,14.60
2023-05-19T21:00:42.349Z,14.60
2023-05-19T21:03:09.365Z,14.50
2023-05-19T21:05:36.799Z,14.50
2023-05-19T21:08:03.797Z,14.50
2023-05-19T21:10:31.107Z,14.50
2023-05-19T21:12:59.610Z,14.50
2023-05-19T21:15:27.193Z,14.40
2023-05-19T21:17:54.088Z,14.50
2023-05-19T21:20:21.752Z,14.40
2023-05-19T21:22:48.673Z,14.40
2023-05-19T21:25:24.826Z,14.40
2023-05-19T21:27:51.970Z,14.40
2023-05-19T21:30:20.790Z,14.40
2023-05-19T21:32:47.705Z,14.40
2023-05-19T21:35:15.113Z,14.40
2023-05-19T21:37:42.105Z,14.40
2023-05-19T21:40:10.084Z,14.40
2023-05-19T21:42:36.966Z,14.30
2023-05-19T21:45:04.781Z,14.30
2023-05-19T21:47:33.095Z,14.20
2023-05-19T21:50:00.252Z,14.20
2023-05-19T21:52:27.096Z,14.10
2023-05-19T21:54:54.266Z,14.10
2023-05-19T21:57:21.141Z,14.10
2023-05-19T21:59:48.046Z,14.10
2023-05-19T22:02:15.398Z,14.10
2023-05-19T22:04:45.070Z,14.10
2023-05-19T22:07:11.944Z,14.10
2023-05-19T22:09:39.194Z,14.10
2023-05-19T22:12:07.160Z,14.10
2023-05-19T22:14:34.244Z,14.00
2023-05-19T22:17:01.259Z,14.00
2023-05-19T22:19:28.753Z,14.00
2023-05-19T22:22:09.926Z,14.00
2023-05-19T22:24:40.978Z,14.00
2023-05-19T22:27:08.413Z,14.10
2023-05-19T22:29:38.287Z,14.00
2023-05-19T22:32:06.532Z,13.90
2023-05-19T22:34:33.480Z,13.90
2023-05-19T22:37:01.937Z,13.80
2023-05-19T22:39:29.186Z,13.80
2023-05-19T22:41:56.081Z,13.80
2023-05-19T22:44:23.236Z,13.70
2023-05-19T22:46:50.224Z,13.70
2023-05-19T22:49:17.520Z,13.70
2023-05-19T22:51:44.351Z,13.80
2023-05-19T22:54:12.972Z,13.80
2023-05-19T22:56:39.842Z,13.70
2023-05-19T22:59:07.022Z,13.70
2023-05-19T23:01:33.964Z,13.70
2023-05-19T23:04:01.302Z,13.60
2023-05-19T23:06:28.208Z,13.60
2023-05-19T23:08:59.693Z,13.60
2023-05-19T23:11:27.965Z,13.50
2023-05-19T23:13:55.141Z,13.50
2023-05-19T23:16:23.178Z,13.40
2023-05-19T23:18:50.406Z,13.40
2023-05-19T23:21:17.284Z,13.30
2023-05-19T23:23:44.514Z,13.30
2023-05-19T23:26:13.386Z,13.20
2023-05-19T23:28:42.008Z,13.20
2023-05-19T23:31:08.970Z,13.10
2023-05-19T23:33:36.279Z,13.10
2023-05-19T23:36:06.442Z,13.10
2023-05-19T23:38:33.947Z,13.00
2023-05-19T23:41:00.866Z,12.90
2023-05-19T23:43:28.062Z,12.90
2023-05-19T23:45:56.303Z,12.90
2023-05-19T23:48:23.470Z,12.90
2023-05-19T23:50:50.414Z,12.90
2023-05-19T23:53:17.325Z,12.90
2023-05-19T23:55:44.958Z,12.80
2023-05-19T23:58:12.379Z,12.80
